createdAt,value
2022-12-17T00:00:46.324Z,41.20
2022-12-17T00:03:41.877Z,45.00
2022-12-17T00:06:28.165Z,53.25
2022-12-17T00:09:15.082Z,48.97
2022-12-17T00:12:04.494Z,48.77
2022-12-17T00:14:51.727Z,58.28
2022-12-17T00:17:38.182Z,55.28
2022-12-17T00:20:25.523Z,55.83
2022-12-17T00:23:23.593Z,51.78
2022-12-17T00:26:15.354Z,45.45
2022-12-17T00:29:01.703Z,47.88
2022-12-17T00:31:49.256Z,41.45
2022-12-17T00:34:35.314Z,44.83
2022-12-17T00:37:24.673Z,53.67
2022-12-17T00:40:30.794Z,51.15
2022-12-17T00:43:22.965Z,48.25
2022-12-17T00:46:10.190Z,51.33
2022-12-17T00:48:57.461Z,45.08
2022-12-17T00:51:44.597Z,42.67
2022-12-17T00:54:31.296Z,46.33
2022-12-17T00:57:17.655Z,41.95
2022-12-17T01:00:04.131Z,39.78
2022-12-17T01:02:50.613Z,41.85
2022-12-17T01:05:37.946Z,43.80
2022-12-17T01:08:32.897Z,42.20
2022-12-17T01:11:25.723Z,46.72
2022-12-17T01:14:12.391Z,45.55
2022-12-17T01:16:59.002Z,39.75
2022-12-17T01:19:45.311Z,39.88
2022-12-17T01:22:31.860Z,45.92
2022-12-17T01:25:18.928Z,41.33
2022-12-17T01:28:09.828Z,40.22
2022-12-17T01:30:57.060Z,41.88
2022-12-17T01:33:43.699Z,44.33
2022-12-17T01:36:29.879Z,42.20
2022-12-17T01:39:16.688Z,47.47
2022-12-17T01:42:02.764Z,37.60
2022-12-17T01:44:57.608Z,34.35
2022-12-17T01:48:10.844Z,36.55
2022-12-17T01:51:02.714Z,32.20
2022-12-17T01:53:56.492Z,34.58
2022-12-17T01:56:45.719Z,29.88
2022-12-17T01:59:34.061Z,25.95
2022-12-17T02:02:21.508Z,28.42
2022-12-17T02:05:21.483Z,21.17
2022-12-17T02:08:10.951Z,21.92
2022-12-17T02:11:36.460Z,26.45
2022-12-17T02:15:09.711Z,19.73
2022-12-17T02:18:04.415Z,16.10
2022-12-17T02:21:10.071Z,17.02
2022-12-17T02:24:08.704Z,28.70
2022-12-17T02:27:09.291Z,21.17
2022-12-17T02:30:12.770Z,24.88
2022-12-17T02:33:03.131Z,20.73
2022-12-17T02:36:08.003Z,18.77
2022-12-17T02:38:54.560Z,18.90
2022-12-17T02:42:10.622Z,21.58
2022-12-17T02:44:59.473Z,20.83
2022-12-17T02:47:47.900Z,20.33
2022-12-17T02:50:35.901Z,21.10
2022-12-17T02:53:23.006Z,22.02
2022-12-17T02:56:09.728Z,25.52
2022-12-17T02:58:57.693Z,25.80
2022-12-17T03:01:45.343Z,24.95
2022-12-17T03:04:31.582Z,26.52
2022-12-17T03:07:18.081Z,26.15
2022-12-17T03:10:04.129Z,24.92
2022-12-17T03:12:52.753Z,22.45
2022-12-17T03:15:38.818Z,26.10
2022-12-17T03:18:25.604Z,21.75
2022-12-17T03:21:13.275Z,20.05
2022-12-17T03:23:59.946Z,17.25
2022-12-17T03:26:46.189Z,14.95
2022-12-17T03:29:32.655Z,12.05
2022-12-17T03:32:18.928Z,9.13
2022-12-17T03:35:05.381Z,6.10
2022-12-17T03:37:51.554Z,12.52
2022-12-17T03:40:38.041Z,11.73
2022-12-17T03:43:29.402Z,12.75
2022-12-17T03:46:16.454Z,14.73
2022-12-17T03:49:02.728Z,14.57
2022-12-17T03:51:49.329Z,12.75
2022-12-17T03:54:35.487Z,20.33
2022-12-17T03:57:22.012Z,25.33
2022-12-17T04:00:07.975Z,27.13
2022-12-17T04:03:14.889Z,28.90
2022-12-17T04:06:01.175Z,31.83
2022-12-17T04:08:47.624Z,37.10
2022-12-17T04:11:34.074Z,35.25
2022-12-17T04:14:20.592Z,37.58
2022-12-17T04:17:06.742Z,32.78
2022-12-17T04:19:53.191Z,35.25
2022-12-17T04:22:39.384Z,29.33
2022-12-17T04:25:26.457Z,29.45
2022-12-17T04:28:12.886Z,26.92
2022-12-17T04:30:59.370Z,26.33
2022-12-17T04:33:45.581Z,30.85
2022-12-17T04:36:32.244Z,29.02
2022-12-17T04:39:18.087Z,30.23
2022-12-17T04:42:04.782Z,27.42
2022-12-17T04:44:51.128Z,10.45
2022-12-17T04:47:37.733Z,5.45
2022-12-17T04:50:24.345Z,4.90
2022-12-17T04:53:20.223Z,3.10
2022-12-17T04:56:06.911Z,7.03
2022-12-17T04:58:56.538Z,3.63
2022-12-17T05:01:43.488Z,3.25
2022-12-17T05:04:30.155Z,6.78
2022-12-17T05:07:19.469Z,4.97
2022-12-17T05:10:06.164Z,3.88
2022-12-17T05:12:52.468Z,4.55
2022-12-17T05:15:38.813Z,4.65
2022-12-17T05:18:26.776Z,3.78
2022-12-17T05:21:13.767Z,4.80
2022-12-17T05:23:59.917Z,4.60
2022-12-17T05:26:48.275Z,7.15
2022-12-17T05:29:34.664Z,6.20
2022-12-17T05:32:21.592Z,6.70
2022-12-17T05:35:07.820Z,10.85
2022-12-17T05:37:54.426Z,4.53
2022-12-17T05:40:40.772Z,5.93
2022-12-17T05:43:31.689Z,6.82
2022-12-17T05:46:18.146Z,9.48
2022-12-17T05:49:04.431Z,17.08
2022-12-17T05:51:53.819Z,9.00
2022-12-17T05:54:40.569Z,9.13
2022-12-17T05:57:26.879Z,11.82
2022-12-17T06:00:13.752Z,16.27
2022-12-17T06:03:00.113Z,19.77
2022-12-17T06:05:46.802Z,14.00
2022-12-17T06:08:33.236Z,13.32
2022-12-17T06:11:19.937Z,16.27
2022-12-17T06:14:06.263Z,16.63
2022-12-17T06:16:52.949Z,17.30
2022-12-17T06:19:38.942Z,15.10
2022-12-17T06:22:25.437Z,18.08
2022-12-17T06:25:11.522Z,23.00
2022-12-17T06:27:58.113Z,20.15
2022-12-17T06:30:44.289Z,20.05
2022-12-17T06:33:31.384Z,23.25
2022-12-17T06:36:22.637Z,21.30
2022-12-17T06:39:09.727Z,20.80
2022-12-17T06:42:02.192Z,15.25
2022-12-17T06:44:51.123Z,15.57
2022-12-17T06:47:37.571Z,15.18
2022-12-17T06:50:24.799Z,19.13
2022-12-17T06:53:37.514Z,16.63
2022-12-17T06:56:24.688Z,18.60
2022-12-17T06:59:10.827Z,17.90
2022-12-17T07:01:57.305Z,17.48
2022-12-17T07:05:00.526Z,20.38
2022-12-17T07:07:46.827Z,17.00
2022-12-17T07:10:35.374Z,20.57
2022-12-17T07:13:28.322Z,17.55
2022-12-17T07:16:15.001Z,18.05
2022-12-17T07:19:01.334Z,16.65
2022-12-17T07:21:47.596Z,21.20
2022-12-17T07:24:34.315Z,23.50
2022-12-17T07:27:20.489Z,18.13
2022-12-17T07:30:06.762Z,19.25
2022-12-17T07:32:53.013Z,21.00
2022-12-17T07:35:39.241Z,20.05
2022-12-17T07:38:25.542Z,18.95
2022-12-17T07:41:15.259Z,17.27
2022-12-17T07:44:01.577Z,19.05
2022-12-17T07:46:48.589Z,16.85
2022-12-17T07:49:34.901Z,15.18
2022-12-17T07:52:21.489Z,16.23
2022-12-17T07:55:07.635Z,18.05
2022-12-17T07:57:54.388Z,21.85
2022-12-17T08:00:46.012Z,20.27
2022-12-17T08:03:36.339Z,23.73
2022-12-17T08:06:23.216Z,23.05
2022-12-17T08:09:09.814Z,25.05
2022-12-17T08:11:55.983Z,23.13
2022-12-17T08:14:42.490Z,25.33
2022-12-17T08:17:28.788Z,30.10
2022-12-17T08:20:15.727Z,25.73
2022-12-17T08:23:01.972Z,32.10
2022-12-17T08:25:48.405Z,31.33
2022-12-17T08:28:50.597Z,35.20
2022-12-17T08:31:38.264Z,38.25
2022-12-17T08:34:24.664Z,34.13
2022-12-17T08:37:11.572Z,37.17
2022-12-17T08:39:57.847Z,39.85
2022-12-17T08:42:44.403Z,40.75
2022-12-17T08:45:30.956Z,38.55
2022-12-17T08:48:25.352Z,38.03
2022-12-17T08:51:12.708Z,45.08
2022-12-17T08:53:59.144Z,42.88
2022-12-17T08:56:45.529Z,46.15
2022-12-17T08:59:32.275Z,42.50
2022-12-17T09:02:20.844Z,48.25
2022-12-17T09:05:07.372Z,45.70
2022-12-17T09:07:53.786Z,44.17
2022-12-17T09:10:40.384Z,45.95
2022-12-17T09:13:26.838Z,47.30
2022-12-17T09:16:15.084Z,47.97
2022-12-17T09:19:18.581Z,45.53
2022-12-17T09:22:05.306Z,49.95
2022-12-17T09:24:51.371Z,50.42
2022-12-17T09:27:38.242Z,44.42
2022-12-17T09:30:25.363Z,45.80
2022-12-17T09:33:11.555Z,47.40
2022-12-17T09:35:58.753Z,47.35
2022-12-17T09:38:44.902Z,51.75
2022-12-17T09:41:57.113Z,49.50
2022-12-17T09:45:02.586Z,48.63
2022-12-17T09:48:16.965Z,49.05
2022-12-17T09:51:09.118Z,46.92
2022-12-17T09:54:03.243Z,48.53
2022-12-17T09:56:51.919Z,44.20
2022-12-17T09:59:48.279Z,45.03
2022-12-17T10:02:40.677Z,46.17
2022-12-17T10:05:51.971Z,41.90
2022-12-17T10:08:41.123Z,49.28
2022-12-17T10:11:45.806Z,54.05
2022-12-17T10:14:44.362Z,44.75
2022-12-17T10:17:38.131Z,48.08
2022-12-17T10:21:02.735Z,49.28
2022-12-17T10:23:52.402Z,50.80
2022-12-17T10:26:48.952Z,49.92
2022-12-17T10:29:47.657Z,43.03
2022-12-17T10:32:34.909Z,35.95
2022-12-17T10:35:26.164Z,34.78
2022-12-17T10:38:12.912Z,38.00
2022-12-17T10:40:59.955Z,41.25
2022-12-17T10:43:57.208Z,37.78
2022-12-17T10:46:47.247Z,39.53
2022-12-17T10:49:41.442Z,40.08
2022-12-17T10:52:50.962Z,40.13
2022-12-17T10:55:56.059Z,44.10
2022-12-17T10:58:47.554Z,44.08
2022-12-17T11:02:03.965Z,36.17
2022-12-17T11:04:56.222Z,38.92
2022-12-17T11:07:55.986Z,44.10
2022-12-17T11:10:46.623Z,42.80
2022-12-17T11:14:04.097Z,44.42
2022-12-17T11:16:57.484Z,41.90
2022-12-17T11:20:07.768Z,39.17
2022-12-17T11:23:08.178Z,44.63
2022-12-17T11:26:19.082Z,43.38
2022-12-17T11:29:05.345Z,38.63
2022-12-17T11:32:16.449Z,48.47
2022-12-17T11:35:20.843Z,45.70
2022-12-17T11:38:24.057Z,46.92
2022-12-17T11:42:06.584Z,48.33
2022-12-17T11:45:13.260Z,40.92
2022-12-17T11:48:16.867Z,43.70
2022-12-17T11:51:36.845Z,44.35
2022-12-17T11:54:51.162Z,38.88
2022-12-17T11:57:44.069Z,44.97
2022-12-17T12:00:41.200Z,46.85
2022-12-17T12:04:09.113Z,38.63
2022-12-17T12:07:37.066Z,41.97
2022-12-17T12:10:44.469Z,44.90
2022-12-17T12:13:48.650Z,45.17
2022-12-17T12:16:46.782Z,48.40
2022-12-17T12:19:56.160Z,42.67
2022-12-17T12:23:23.934Z,42.58
2022-12-17T12:26:31.879Z,50.58
2022-12-17T12:29:21.245Z,43.40
2022-12-17T12:32:35.770Z,42.90
2022-12-17T12:35:37.523Z,46.03
2022-12-17T12:38:24.668Z,47.38
2022-12-17T12:41:25.380Z,51.45
2022-12-17T12:44:18.349Z,46.22
2022-12-17T12:47:18.145Z,47.53
2022-12-17T12:50:39.668Z,45.55
2022-12-17T12:53:31.091Z,42.22
2022-12-17T12:56:17.130Z,47.35
2022-12-17T12:59:03.239Z,48.45
2022-12-17T13:01:55.898Z,51.63
2022-12-17T13:04:54.581Z,44.65
2022-12-17T13:07:29.278Z,49.00
2022-12-17T13:09:59.322Z,45.95
2022-12-17T13:12:44.247Z,45.58
2022-12-17T13:15:37.081Z,48.58
2022-12-17T13:18:27.525Z,52.00
2022-12-17T13:21:15.056Z,46.63
2022-12-17T13:23:43.345Z,46.58
2022-12-17T13:26:39.077Z,48.77
2022-12-17T13:29:33.068Z,48.75
2022-12-17T13:32:01.113Z,52.92
2022-12-17T13:35:15.372Z,45.42
2022-12-17T13:37:45.809Z,49.78
2022-12-17T13:41:18.658Z,48.55
2022-12-17T13:43:54.376Z,45.75
2022-12-17T13:46:30.362Z,52.08
2022-12-17T13:49:19.419Z,52.90
2022-12-17T13:51:47.734Z,49.65
2022-12-17T13:54:19.838Z,54.73
2022-12-17T13:56:47.772Z,54.60
2022-12-17T13:59:24.238Z,53.42
2022-12-17T14:01:54.039Z,55.75
2022-12-17T14:04:28.473Z,55.42
2022-12-17T14:07:06.021Z,52.83
2022-12-17T14:09:43.337Z,53.60
2022-12-17T14:12:23.747Z,48.88
2022-12-17T14:15:00.019Z,53.28
2022-12-17T14:17:35.775Z,50.35
2022-12-17T14:20:36.992Z,49.55
2022-12-17T14:23:33.424Z,52.17
2022-12-17T14:26:01.659Z,57.42
2022-12-17T14:28:37.107Z,54.35
2022-12-17T14:31:31.065Z,51.60
2022-12-17T14:34:08.541Z,51.30
2022-12-17T14:36:42.790Z,53.30
2022-12-17T14:39:31.205Z,56.25
2022-12-17T14:42:27.012Z,55.45
2022-12-17T14:45:06.997Z,55.38
2022-12-17T14:47:37.797Z,55.33
2022-12-17T14:50:13.983Z,53.17
2022-12-17T14:52:46.354Z,51.80
2022-12-17T14:55:37.089Z,52.38
2022-12-17T14:58:16.679Z,53.25
2022-12-17T15:00:50.422Z,50.38
2022-12-17T15:03:46.128Z,47.03
2022-12-17T15:06:18.665Z,51.80
2022-12-17T15:08:49.150Z,53.63
2022-12-17T15:11:20.435Z,56.33
2022-12-17T15:13:54.419Z,52.90
2022-12-17T15:16:24.414Z,52.00
2022-12-17T15:18:52.353Z,52.33
2022-12-17T15:21:20.544Z,53.63
2022-12-17T15:23:48.858Z,55.95
2022-12-17T15:26:17.434Z,52.25
2022-12-17T15:28:45.546Z,56.13
2022-12-17T15:31:15.162Z,55.85
2022-12-17T15:33:43.845Z,59.20
2022-12-17T15:36:12.532Z,51.83
2022-12-17T15:38:40.712Z,55.00
2022-12-17T15:41:28.640Z,53.65
2022-12-17T15:43:56.746Z,55.88
2022-12-17T15:46:26.335Z,54.58
2022-12-17T15:48:54.257Z,55.95
2022-12-17T15:51:23.557Z,57.08
2022-12-17T15:56:25.847Z,58.95
2022-12-17T15:58:56.916Z,57.75
2022-12-17T16:01:25.141Z,53.05
2022-12-17T16:03:53.332Z,53.42
2022-12-17T16:06:20.988Z,45.65
2022-12-17T16:08:48.936Z,51.55
2022-12-17T16:11:16.657Z,53.65
2022-12-17T16:13:45.305Z,52.47
2022-12-17T16:16:13.104Z,56.88
2022-12-17T16:18:41.449Z,64.00
2022-12-17T16:21:09.891Z,54.10
2022-12-17T16:23:38.101Z,59.63
2022-12-17T16:26:09.507Z,54.85
2022-12-17T16:28:37.911Z,56.17
2022-12-17T16:31:14.893Z,61.33
2022-12-17T16:33:44.692Z,63.00
2022-12-17T16:36:15.694Z,53.25
2022-12-17T16:38:47.074Z,55.13
2022-12-17T16:41:15.722Z,59.25
2022-12-17T16:43:44.190Z,56.10
2022-12-17T16:46:39.599Z,64.95
2022-12-17T16:49:20.057Z,67.75
2022-12-17T16:51:53.005Z,53.10
2022-12-17T16:54:26.209Z,50.90
2022-12-17T16:56:54.324Z,47.15
2022-12-17T16:59:23.538Z,55.65
2022-12-17T17:01:52.777Z,53.15
2022-12-17T17:06:57.164Z,53.53
2022-12-17T17:09:26.668Z,51.60
2022-12-17T17:11:59.201Z,51.67
2022-12-17T17:14:27.972Z,59.88
2022-12-17T17:16:55.581Z,53.47
2022-12-17T17:19:23.547Z,59.00
2022-12-17T17:21:54.259Z,55.30
2022-12-17T17:24:25.530Z,56.08
2022-12-17T17:26:55.240Z,55.88
2022-12-17T17:29:23.324Z,59.17
2022-12-17T17:32:09.944Z,60.42
2022-12-17T17:34:40.283Z,54.10
2022-12-17T17:37:07.978Z,59.85
2022-12-17T17:39:36.077Z,69.65
2022-12-17T17:42:03.925Z,61.00
2022-12-17T17:44:32.168Z,60.28
2022-12-17T17:47:00.319Z,56.80
2022-12-17T17:49:28.932Z,55.78
2022-12-17T17:52:12.466Z,60.30
2022-12-17T17:54:41.031Z,58.08
2022-12-17T17:57:10.131Z,62.55
2022-12-17T17:59:39.651Z,55.13
2022-12-17T18:02:09.736Z,55.45
2022-12-17T18:04:38.663Z,58.72
2022-12-17T18:07:24.748Z,54.60
2022-12-17T18:09:53.784Z,54.50
2022-12-17T18:12:41.524Z,51.70
2022-12-17T18:15:15.730Z,54.40
2022-12-17T18:17:51.781Z,56.30
2022-12-17T18:20:19.762Z,57.50
2022-12-17T18:22:47.617Z,50.13
2022-12-17T18:25:16.701Z,54.53
2022-12-17T18:27:45.412Z,50.15
2022-12-17T18:30:14.442Z,60.53
2022-12-17T18:32:43.804Z,57.88
2022-12-17T18:35:11.946Z,58.08
2022-12-17T18:37:39.823Z,51.45
2022-12-17T18:40:08.982Z,52.17
2022-12-17T18:42:55.259Z,58.25
2022-12-17T18:45:23.427Z,55.88
2022-12-17T18:47:51.392Z,51.03
2022-12-17T18:50:19.514Z,52.63
2022-12-17T18:52:47.041Z,57.63
2022-12-17T18:55:14.904Z,45.25
2022-12-17T18:57:42.439Z,53.00
2022-12-17T19:00:11.468Z,53.35
2022-12-17T19:02:39.808Z,48.03
2022-12-17T19:05:08.551Z,44.10
2022-12-17T19:07:36.304Z,50.95
2022-12-17T19:10:05.076Z,46.22
2022-12-17T19:12:33.163Z,49.90
2022-12-17T19:15:01.047Z,48.30
2022-12-17T19:17:28.560Z,51.55
2022-12-17T19:19:56.490Z,52.03
2022-12-17T19:22:24.015Z,47.83
2022-12-17T19:24:52.130Z,47.95
2022-12-17T19:27:19.662Z,44.90
2022-12-17T19:29:49.874Z,41.92
2022-12-17T19:32:20.623Z,45.88
2022-12-17T19:34:48.539Z,52.03
2022-12-17T19:37:16.197Z,46.53
2022-12-17T19:39:45.628Z,43.83
2022-12-17T19:44:57.271Z,43.33
2022-12-17T19:47:25.139Z,44.60
2022-12-17T19:49:53.113Z,43.85
2022-12-17T19:52:21.028Z,41.58
2022-12-17T19:54:49.498Z,49.58
2022-12-17T19:57:17.075Z,45.08
2022-12-17T19:59:44.903Z,47.17
2022-12-17T20:02:12.569Z,44.97
2022-12-17T20:04:40.729Z,46.75
2022-12-17T20:07:08.393Z,47.92
2022-12-17T20:09:36.435Z,50.15
2022-12-17T20:12:04.572Z,47.85
2022-12-17T20:14:34.411Z,51.97
2022-12-17T20:19:33.380Z,52.00
2022-12-17T20:22:07.014Z,57.58
2022-12-17T20:24:35.500Z,54.83
2022-12-17T20:27:03.530Z,50.88
2022-12-17T20:29:32.248Z,49.35
2022-12-17T20:32:03.111Z,48.10
2022-12-17T20:34:31.160Z,47.80
2022-12-17T20:36:58.780Z,47.35
2022-12-17T20:39:28.241Z,50.70
2022-12-17T20:41:57.260Z,47.08
2022-12-17T20:44:25.499Z,48.50
2022-12-17T20:46:53.202Z,50.20
2022-12-17T20:49:21.121Z,44.13
2022-12-17T20:51:48.748Z,44.95
2022-12-17T20:54:16.674Z,46.00
2022-12-17T20:56:44.392Z,47.95
2022-12-17T20:59:17.627Z,47.67
2022-12-17T21:01:50.435Z,53.70
2022-12-17T21:04:21.208Z,47.85
2022-12-17T21:06:49.079Z,48.78
2022-12-17T21:09:20.256Z,47.80
2022-12-17T21:11:48.496Z,49.00
2022-12-17T21:14:18.933Z,53.92
2022-12-17T21:16:47.518Z,59.38
2022-12-17T21:19:19.054Z,49.45
2022-12-17T21:21:47.136Z,51.72
2022-12-17T21:24:15.024Z,51.17
2022-12-17T21:26:44.936Z,50.53
2022-12-17T21:29:14.736Z,51.65
2022-12-17T21:34:22.218Z,57.83
2022-12-17T21:36:51.660Z,63.70
2022-12-17T21:39:20.573Z,47.15
2022-12-17T21:42:09.929Z,57.20
2022-12-17T21:44:38.024Z,64.97
2022-12-17T21:47:06.076Z,53.95
2022-12-17T21:49:34.146Z,52.08
2022-12-17T21:52:05.507Z,52.00
2022-12-17T21:54:38.628Z,53.72
2022-12-17T21:57:07.852Z,52.85
2022-12-17T21:59:35.756Z,52.15
2022-12-17T22:02:03.430Z,53.92
2022-12-17T22:04:31.588Z,54.25
2022-12-17T22:07:04.697Z,60.28
2022-12-17T22:09:57.654Z,54.95
2022-12-17T22:12:48.428Z,52.15
2022-12-17T22:15:17.089Z,51.97
2022-12-17T22:17:45.460Z,50.55
2022-12-17T22:20:16.551Z,56.38
2022-12-17T22:22:45.103Z,50.28
2022-12-17T22:25:13.808Z,55.13
2022-12-17T22:27:41.898Z,55.72
2022-12-17T22:30:35.417Z,60.88
2022-12-17T22:33:21.380Z,58.15
2022-12-17T22:37:19.808Z,58.95
2022-12-17T22:43:59.790Z,60.47
2022-12-17T22:44:35.785Z,55.20
2022-12-17T22:44:53.189Z,58.15
2022-12-17T22:47:22.432Z,58.63
2022-12-17T22:49:51.621Z,57.57
2022-12-17T22:54:48.841Z,55.95
2022-12-17T22:57:34.943Z,55.25
2022-12-17T23:00:22.421Z,60.05
2022-12-17T23:02:54.598Z,54.70
2022-12-17T23:05:27.823Z,55.08
2022-12-17T23:07:56.543Z,59.00
2022-12-17T23:10:26.810Z,59.70
2022-12-17T23:12:56.223Z,47.97
2022-12-17T23:15:35.025Z,56.60
2022-12-17T23:18:07.077Z,47.42
2022-12-17T23:20:36.192Z,51.28
2022-12-17T23:23:04.085Z,53.50
2022-12-17T23:25:31.790Z,52.38
2022-12-17T23:27:59.823Z,50.38
2022-12-17T23:30:27.651Z,48.60
2022-12-17T23:32:55.693Z,53.47
2022-12-17T23:35:23.231Z,42.47
2022-12-17T23:37:51.267Z,44.97
2022-12-17T23:40:18.994Z,50.13
2022-12-17T23:42:46.911Z,47.15
2022-12-17T23:45:14.810Z,45.20
2022-12-17T23:47:42.862Z,46.72
2022-12-17T23:50:11.530Z,53.80
2022-12-17T23:52:39.792Z,44.95
2022-12-17T23:55:08.609Z,47.30
2022-12-17T23:57:36.498Z,50.85
